Time;durP1;ratioP1;P1;durP2;ratioP2;P2;SDS_P1;SDS_P2;PMS_P1;PMS_P2;Temp;Humidity;BMP_temperature;BMP_pressure;BME280_temperature;BME280_humidity;BME280_pressure;Samples;Min_cycle;Max_cycle;Signal;HPM_P1;HPM_P2
2023/07/15 00:00:07;;;;;;;5.57;2.10;;;;;;;;;;5067337;28;20020;-61
2023/07/15 00:02:33;;;;;;;5.72;2.53;;;;;;;;;;5068403;28;20028;-59
2023/07/15 00:04:58;;;;;;;5.60;2.50;;;;;;;;;;5069259;28;20020;-61
2023/07/15 00:07:23;;;;;;;5.73;2.57;;;;;;;;;;5065593;28;20058;-60
2023/07/15 00:09:48;;;;;;;5.43;2.28;;;;;;;;;;5065156;28;20166;-61
2023/07/15 00:12:15;;;;;;;4.83;2.47;;;;;;;;;;5069787;28;20392;-60
2023/07/15 00:14:40;;;;;;;6.13;2.45;;;;;;;;;;5063760;28;20078;-61
2023/07/15 00:17:05;;;;;;;5.20;2.10;;;;;;;;;;5068040;28;20016;-59
2023/07/15 00:19:33;;;;;;;8.53;2.60;;;;;;;;;;5063757;28;20396;-60
2023/07/15 00:21:58;;;;;;;7.57;2.13;;;;;;;;;;5068695;28;20025;-59
2023/07/15 00:24:23;;;;;;;6.63;2.33;;;;;;;;;;5063865;28;20025;-60
2023/07/15 00:26:48;;;;;;;4.88;2.50;;;;;;;;;;5063402;28;20036;-62
2023/07/15 00:29:14;;;;;;;5.70;2.23;;;;;;;;;;5069166;28;20512;-59
2023/07/15 00:31:39;;;;;;;5.57;2.33;;;;;;;;;;5070018;28;20027;-61
2023/07/15 00:34:05;;;;;;;6.50;2.40;;;;;;;;;;5065748;28;20476;-57
2023/07/15 00:36:31;;;;;;;6.13;2.00;;;;;;;;;;5065736;28;20025;-59
2023/07/15 00:38:56;;;;;;;6.03;2.47;;;;;;;;;;5067122;28;20029;-60
2023/07/15 00:41:23;;;;;;;4.70;2.07;;;;;;;;;;5067348;28;20108;-61
2023/07/15 00:43:52;;;;;;;4.43;2.25;;;;;;;;;;5068730;28;20021;-62
2023/07/15 00:46:17;;;;;;;5.43;2.30;;;;;;;;;;5063638;28;20077;-62
2023/07/15 00:48:47;;;;;;;5.65;2.30;;;;;;;;;;5069791;28;20107;-61
2023/07/15 00:51:12;;;;;;;4.47;1.98;;;;;;;;;;5066136;28;20008;-60
2023/07/15 00:53:37;;;;;;;4.97;1.87;;;;;;;;;;5067997;28;20044;-61
2023/07/15 00:56:02;;;;;;;5.45;2.20;;;;;;;;;;5061137;28;20059;-60
2023/07/15 00:58:28;;;;;;;7.45;2.35;;;;;;;;;;5066587;28;20111;-60
2023/07/15 01:00:53;;;;;;;5.00;2.23;;;;;;;;;;5067061;28;20027;-60
2023/07/15 01:03:18;;;;;;;5.43;2.20;;;;;;;;;;5068456;28;20048;-61
2023/07/15 01:05:43;;;;;;;4.30;1.83;;;;;;;;;;5056558;28;20024;-60
2023/07/15 01:08:08;;;;;;;5.45;2.25;;;;;;;;;;5064324;28;20476;-61
2023/07/15 01:10:34;;;;;;;6.45;2.13;;;;;;;;;;5054244;28;20112;-60
2023/07/15 01:12:59;;;;;;;5.47;2.10;;;;;;;;;;5050033;28;20059;-58
2023/07/15 01:15:24;;;;;;;4.50;2.10;;;;;;;;;;5052654;28;20099;-60
2023/07/15 01:17:49;;;;;;;4.97;2.38;;;;;;;;;;5052105;28;20076;-60
2023/07/15 01:20:16;;;;;;;6.53;2.30;;;;;;;;;;5057114;28;20437;-59
2023/07/15 01:22:42;;;;;;;5.15;2.05;;;;;;;;;;5058919;28;20095;-59
2023/07/15 01:25:07;;;;;;;5.37;2.10;;;;;;;;;;5061846;28;20108;-61
2023/07/15 01:27:33;;;;;;;5.27;2.20;;;;;;;;;;5068462;28;20041;-61
2023/07/15 01:29:59;;;;;;;5.90;2.30;;;;;;;;;;5062927;28;20502;-61
2023/07/15 01:32:24;;;;;;;5.73;2.13;;;;;;;;;;5062419;28;20033;-59
2023/07/15 01:34:49;;;;;;;5.33;2.30;;;;;;;;;;5064703;28;20032;-61
2023/07/15 01:37:14;;;;;;;4.38;2.17;;;;;;;;;;5059076;28;20501;-59
2023/07/15 01:39:39;;;;;;;4.95;2.08;;;;;;;;;;5069117;28;20021;-63
2023/07/15 01:42:05;;;;;;;5.35;2.20;;;;;;;;;;5065532;28;20039;-59
2023/07/15 01:44:30;;;;;;;6.13;2.53;;;;;;;;;;5075750;28;20020;-61
2023/07/15 01:46:55;;;;;;;5.72;2.13;;;;;;;;;;5067743;28;20048;-62
2023/07/15 01:49:20;;;;;;;4.07;1.90;;;;;;;;;;5064711;28;20047;-59
2023/07/15 01:51:45;;;;;;;5.72;2.10;;;;;;;;;;5066940;28;20035;-60
2023/07/15 01:54:10;;;;;;;5.73;2.30;;;;;;;;;;5068765;28;20102;-61
2023/07/15 01:56:36;;;;;;;8.00;2.37;;;;;;;;;;5075917;28;20024;-60
2023/07/15 01:59:01;;;;;;;5.60;2.03;;;;;;;;;;5069056;28;20032;-61
2023/07/15 02:01:27;;;;;;;8.82;2.30;;;;;;;;;;5070092;28;20035;-59
2023/07/15 02:03:52;;;;;;;7.90;2.60;;;;;;;;;;5052237;28;20079;-58
2023/07/15 02:06:17;;;;;;;4.63;2.10;;;;;;;;;;5075490;28;20506;-60
2023/07/15 02:08:42;;;;;;;7.37;2.30;;;;;;;;;;5089512;28;20027;-60
2023/07/15 02:11:07;;;;;;;5.50;2.43;;;;;;;;;;5093061;28;20115;-61
2023/07/15 02:13:33;;;;;;;4.60;2.33;;;;;;;;;;5092479;28;20059;-60
2023/07/15 02:15:58;;;;;;;9.07;2.20;;;;;;;;;;5093304;28;20020;-60
2023/07/15 02:18:25;;;;;;;5.82;2.33;;;;;;;;;;5092915;28;20016;-60
2023/07/15 02:20:50;;;;;;;6.18;2.78;;;;;;;;;;5092925;28;20073;-60
2023/07/15 02:23:16;;;;;;;5.57;2.58;;;;;;;;;;5092301;28;20039;-60
2023/07/15 02:25:42;;;;;;;5.07;2.22;;;;;;;;;;5093035;28;20028;-60
2023/07/15 02:28:07;;;;;;;5.00;2.40;;;;;;;;;;5093092;28;20396;-60
2023/07/15 02:30:32;;;;;;;5.35;2.35;;;;;;;;;;5091775;28;20028;-59
2023/07/15 02:32:58;;;;;;;4.90;2.17;;;;;;;;;;5092841;28;20040;-60
2023/07/15 02:35:23;;;;;;;5.38;2.33;;;;;;;;;;5092631;28;20016;-60
2023/07/15 02:37:49;;;;;;;6.37;2.20;;;;;;;;;;5092637;28;20441;-60
2023/07/15 02:40:14;;;;;;;5.15;2.35;;;;;;;;;;5093156;28;21052;-60
2023/07/15 02:42:39;;;;;;;5.43;2.30;;;;;;;;;;5092279;28;20016;-61
2023/07/15 02:45:06;;;;;;;4.60;2.10;;;;;;;;;;5075528;28;20104;-60
2023/07/15 02:47:31;;;;;;;;;;;;;;;;;;5073523;28;20025;-61
2023/07/15 02:49:57;;;;;;;4.95;2.30;;;;;;;;;;5072319;28;20287;-59
2023/07/15 02:52:23;;;;;;;4.55;2.05;;;;;;;;;;5071856;28;20559;-59
2023/07/15 02:54:48;;;;;;;5.22;2.30;;;;;;;;;;5071809;28;20111;-59
2023/07/15 02:57:13;;;;;;;6.65;2.13;;;;;;;;;;5070913;28;20108;-60
2023/07/15 02:59:39;;;;;;;4.90;2.30;;;;;;;;;;5071940;28;20051;-59
2023/07/15 03:02:04;;;;;;;5.73;2.37;;;;;;;;;;5071953;28;20016;-59
2023/07/15 03:04:29;;;;;;;5.90;2.53;;;;;;;;;;5071729;28;20466;-59
2023/07/15 03:06:55;;;;;;;4.72;2.20;;;;;;;;;;5072171;28;20044;-59
2023/07/15 03:09:21;;;;;;;4.75;2.25;;;;;;;;;;5071947;28;20029;-59
2023/07/15 03:11:46;;;;;;;6.47;2.35;;;;;;;;;;5072087;28;20070;-59
2023/07/15 03:14:11;;;;;;;4.30;2.20;;;;;;;;;;5071302;28;20017;-60
2023/07/15 03:16:36;;;;;;;5.13;2.10;;;;;;;;;;5058929;28;20040;-59
2023/07/15 03:19:03;;;;;;;5.97;2.57;;;;;;;;;;5051891;28;20091;-58
2023/07/15 03:21:28;;;;;;;4.68;2.13;;;;;;;;;;5051830;28;20013;-61
2023/07/15 03:23:53;;;;;;;5.35;2.00;;;;;;;;;;5049994;28;20029;-58
2023/07/15 03:26:18;;;;;;;6.07;2.20;;;;;;;;;;5052407;28;20021;-58
2023/07/15 03:28:44;;;;;;;5.57;2.15;;;;;;;;;;5052236;28;20021;-58
2023/07/15 03:31:10;;;;;;;5.88;2.58;;;;;;;;;;5052072;28;20021;-60
2023/07/15 03:33:35;;;;;;;7.60;2.22;;;;;;;;;;5051514;28;20090;-59
2023/07/15 03:36:00;;;;;;;5.33;2.10;;;;;;;;;;5052291;28;20048;-61
2023/07/15 03:38:25;;;;;;;5.13;2.08;;;;;;;;;;5052063;28;20021;-59
2023/07/15 03:40:50;;;;;;;5.43;2.53;;;;;;;;;;5051237;28;20075;-60
2023/07/15 03:43:17;;;;;;;5.83;2.50;;;;;;;;;;5063517;28;20028;-59
2023/07/15 03:45:42;;;;;;;5.65;2.80;;;;;;;;;;5071190;28;20413;-58
2023/07/15 03:48:07;;;;;;;5.53;2.35;;;;;;;;;;5071645;28;20050;-61
2023/07/15 03:50:32;;;;;;;5.57;2.22;;;;;;;;;;5071194;28;20138;-60
2023/07/15 03:52:58;;;;;;;5.63;2.28;;;;;;;;;;5070210;28;20012;-58
2023/07/15 03:55:23;;;;;;;5.27;2.27;;;;;;;;;;5071166;28;20382;-61
2023/07/15 03:57:48;;;;;;;5.70;2.10;;;;;;;;;;5071104;28;20024;-60
2023/07/15 04:00:17;;;;;;;5.10;1.90;;;;;;;;;;5070994;28;20066;-60
2023/07/15 04:02:44;;;;;;;4.43;2.00;;;;;;;;;;5070165;28;20055;-60
2023/07/15 04:05:10;;;;;;;6.18;2.38;;;;;;;;;;5070781;28;20500;-59
2023/07/15 04:07:35;;;;;;;5.40;2.33;;;;;;;;;;5070836;28;20013;-61
2023/07/15 04:10:00;;;;;;;5.07;2.30;;;;;;;;;;5069444;28;20043;-61
2023/07/15 04:12:25;;;;;;;6.10;2.30;;;;;;;;;;5070104;28;20017;-61
2023/07/15 04:14:50;;;;;;;5.37;2.27;;;;;;;;;;5070791;28;20029;-60
2023/07/15 04:17:15;;;;;;;5.63;2.17;;;;;;;;;;5070611;28;20023;-61
2023/07/15 04:19:41;;;;;;;5.13;1.95;;;;;;;;;;5070528;28;20026;-61
2023/07/15 04:22:06;;;;;;;4.70;2.08;;;;;;;;;;5070374;28;20028;-59
2023/07/15 04:24:31;;;;;;;5.25;2.50;;;;;;;;;;5070489;28;20012;-60
2023/07/15 04:26:57;;;;;;;5.07;2.08;;;;;;;;;;5070633;28;20074;-61
2023/07/15 04:29:22;;;;;;;6.88;2.30;;;;;;;;;;5070350;28;20029;-61
2023/07/15 04:31:47;;;;;;;4.97;2.00;;;;;;;;;;5070482;28;20488;-59
2023/07/15 04:34:12;;;;;;;5.50;2.20;;;;;;;;;;5070136;28;20020;-60
2023/07/15 04:36:38;;;;;;;4.30;2.00;;;;;;;;;;5070863;28;20081;-61
2023/07/15 04:39:03;;;;;;;6.13;2.05;;;;;;;;;;5070588;28;20472;-60
2023/07/15 04:41:28;;;;;;;5.20;1.90;;;;;;;;;;5070620;28;20070;-60
2023/07/15 04:43:53;;;;;;;5.55;1.90;;;;;;;;;;5069878;28;20025;-60
2023/07/15 04:46:18;;;;;;;6.07;2.50;;;;;;;;;;5070801;28;20434;-59
2023/07/15 04:48:43;;;;;;;4.77;2.13;;;;;;;;;;5059544;28;20086;-60
2023/07/15 04:51:09;;;;;;;4.93;2.30;;;;;;;;;;5051297;28;20051;-60
2023/07/15 04:53:34;;;;;;;5.47;2.20;;;;;;;;;;5072049;28;20446;-60
2023/07/15 04:55:59;;;;;;;4.70;2.13;;;;;;;;;;5074656;28;20025;-60
2023/07/15 04:58:24;;;;;;;4.90;2.10;;;;;;;;;;5074358;28;20506;-61
2023/07/15 05:00:49;;;;;;;5.10;2.27;;;;;;;;;;5074576;28;20032;-60
2023/07/15 05:03:15;;;;;;;6.83;2.27;;;;;;;;;;5073499;28;20445;-59
2023/07/15 05:05:40;;;;;;;5.17;1.97;;;;;;;;;;5072913;28;20063;-60
2023/07/15 05:08:14;;;;;;;4.88;2.00;;;;;;;;;;5074486;28;20021;-61
2023/07/15 05:10:40;;;;;;;7.25;2.25;;;;;;;;;;5074284;28;20029;-60
2023/07/15 05:13:08;;;;;;;5.47;2.08;;;;;;;;;;5073361;28;20408;-60
2023/07/15 05:15:33;;;;;;;6.10;2.30;;;;;;;;;;5073958;28;20020;-60
2023/07/15 05:17:59;;;;;;;4.50;2.28;;;;;;;;;;5074009;28;20573;-61
2023/07/15 05:20:24;;;;;;;6.53;2.00;;;;;;;;;;5074051;28;20047;-61
2023/07/15 05:22:49;;;;;;;6.00;2.03;;;;;;;;;;5073430;28;20040;-59
2023/07/15 05:25:15;;;;;;;6.90;2.00;;;;;;;;;;5074011;28;20032;-61
2023/07/15 05:27:40;;;;;;;4.72;1.83;;;;;;;;;;5073684;28;20439;-60
2023/07/15 05:30:06;;;;;;;;;;;;;;;;;;5074234;28;20044;-60
2023/07/15 05:32:31;;;;;;;4.70;1.83;;;;;;;;;;5073260;28;20026;-61
2023/07/15 05:34:56;;;;;;;4.90;2.10;;;;;;;;;;5066774;28;20021;-60
2023/07/15 05:37:21;;;;;;;;;;;;;;;;;;5054008;28;20499;-59
2023/07/15 05:39:46;;;;;;;4.55;2.28;;;;;;;;;;5053655;28;19909;-60
2023/07/15 05:42:11;;;;;;;;;;;;;;;;;;5053653;28;20013;-59
2023/07/15 05:44:36;;;;;;;5.93;2.15;;;;;;;;;;5073527;28;20003;-61
2023/07/15 05:47:01;;;;;;;4.50;1.97;;;;;;;;;;5074073;28;20036;-62
2023/07/15 05:49:27;;;;;;;;;;;;;;;;;;5075268;28;20013;-61
2023/07/15 05:51:52;;;;;;;6.20;2.17;;;;;;;;;;5073040;28;19908;-59
2023/07/15 05:54:17;;;;;;;;;;;;;;;;;;5073543;28;20028;-60
2023/07/15 05:56:42;;;;;;;6.87;2.17;;;;;;;;;;5073741;28;20383;-60
2023/07/15 05:59:07;;;;;;;;;;;;;;;;;;5072694;28;20025;-59
2023/07/15 06:01:33;;;;;;;4.85;2.00;;;;;;;;;;5073303;28;19913;-61
2023/07/15 06:03:59;;;;;;;6.83;2.30;;;;;;;;;;5062628;28;20079;-62
2023/07/15 06:06:24;;;;;;;4.40;2.10;;;;;;;;;;5053352;28;20021;-61
2023/07/15 06:08:49;;;;;;;;;;;;;;;;;;5053882;28;20124;-62
2023/07/15 06:11:16;;;;;;;4.68;1.98;;;;;;;;;;5053265;28;19905;-61
2023/07/15 06:13:41;;;;;;;5.75;2.10;;;;;;;;;;5052088;28;20021;-60
2023/07/15 06:16:06;;;;;;;;;;;;;;;;;;5053657;28;20021;-61
2023/07/15 06:18:31;;;;;;;4.72;2.25;;;;;;;;;;5052892;28;19987;-61
2023/07/15 06:20:56;;;;;;;;;;;;;;;;;;5070193;28;20055;-61
2023/07/15 06:23:21;;;;;;;9.80;2.35;;;;;;;;;;5072269;28;19935;-62
2023/07/15 06:25:46;;;;;;;;;;;;;;;;;;5073494;28;20024;-61
2023/07/15 06:28:11;;;;;;;5.57;2.13;;;;;;;;;;5072945;28;19931;-61
2023/07/15 06:30:37;;;;;;;;;;;;;;;;;;5071755;28;20032;-61
2023/07/15 06:33:02;;;;;;;5.55;2.13;;;;;;;;;;5071966;28;19908;-61
2023/07/15 06:35:27;;;;;;;6.10;2.07;;;;;;;;;;5072994;28;20025;-61
2023/07/15 06:37:52;;;;;;;;;;;;;;;;;;5073482;28;20017;-60
2023/07/15 06:40:18;;;;;;;4.80;2.17;;;;;;;;;;5070966;28;20299;-60
2023/07/15 06:42:43;;;;;;;;;;;;;;;;;;5072380;28;20017;-60
2023/07/15 06:45:08;;;;;;;6.70;2.10;;;;;;;;;;5072465;28;20300;-61
2023/07/15 06:47:34;;;;;;;;;;;;;;;;;;5072923;28;20070;-61
2023/07/15 06:49:59;;;;;;;5.43;2.00;;;;;;;;;;5071068;28;19916;-60
2023/07/15 06:52:24;;;;;;;;;;;;;;;;;;5072691;28;20020;-58
2023/07/15 06:54:50;;;;;;;7.18;2.15;;;;;;;;;;5072080;28;20387;-62
2023/07/15 06:57:15;;;;;;;;;;;;;;;;;;5072911;28;20017;-61
2023/07/15 06:59:41;;;;;;;4.72;2.08;;;;;;;;;;5072342;28;20023;-59
2023/07/15 07:02:06;;;;;;;;;;;;;;;;;;5072360;28;20033;-60
2023/07/15 07:04:31;;;;;;;4.85;1.88;;;;;;;;;;5065741;28;19908;-60
2023/07/15 07:06:56;;;;;;;;;;;;;;;;;;5052520;28;20013;-60
2023/07/15 07:09:21;;;;;;;6.68;2.40;;;;;;;;;;5052079;28;20339;-61
2023/07/15 07:11:46;;;;;;;;;;;;;;;;;;5052479;28;20100;-61
2023/07/15 07:14:11;;;;;;;5.70;2.10;;;;;;;;;;5051250;28;19908;-61
2023/07/15 07:16:36;;;;;;;;;;;;;;;;;;5051857;28;20032;-60
2023/07/15 07:19:02;;;;;;;5.40;1.90;;;;;;;;;;5051506;28;19909;-59
2023/07/15 07:21:27;;;;;;;;;;;;;;;;;;5052811;28;20032;-59
2023/07/15 07:23:52;;;;;;;7.25;2.10;;;;;;;;;;5051394;28;19916;-66
2023/07/15 07:26:17;;;;;;;;;;;;;;;;;;5052664;28;20036;-60
2023/07/15 07:28:43;;;;;;;6.57;2.38;;;;;;;;;;5051525;28;19916;-59
2023/07/15 07:31:09;;;;;;;6.03;2.10;;;;;;;;;;5054699;28;20468;-61
2023/07/15 07:33:34;;;;;;;;;;;;;;;;;;5071296;28;20138;-59
2023/07/15 07:35:59;;;;;;;6.20;2.08;;;;;;;;;;5069843;28;20422;-59
2023/07/15 07:38:24;;;;;;;;;;;;;;;;;;5071754;28;20143;-60
2023/07/15 07:40:49;;;;;;;5.93;2.08;;;;;;;;;;5071383;28;19915;-59
2023/07/15 07:43:14;;;;;;;;;;;;;;;;;;5071223;28;20441;-59
2023/07/15 07:45:39;;;;;;;5.75;2.05;;;;;;;;;;5064199;28;19949;-60
2023/07/15 07:48:05;;;;;;;;;;;;;;;;;;5061375;28;20048;-61
2023/07/15 07:50:30;;;;;;;4.82;2.17;;;;;;;;;;5071416;28;20257;-59
2023/07/15 07:52:55;;;;;;;4.47;1.90;;;;;;;;;;5070632;28;20074;-60
2023/07/15 07:55:20;;;;;;;;;;;;;;;;;;5070571;28;20467;-60
2023/07/15 07:57:45;;;;;;;7.90;2.42;;;;;;;;;;5071029;28;20300;-59
2023/07/15 08:00:10;;;;;;;;;;;;;;;;;;5071678;28;20031;-60
2023/07/15 08:02:35;;;;;;;5.05;2.17;;;;;;;;;;5070394;28;19905;-58
2023/07/15 08:05:01;;;;;;;5.37;2.17;;;;;;;;;;5071977;28;20032;-62
2023/07/15 08:07:26;;;;;;;4.20;1.90;;;;;;;;;;5072555;28;20016;-61
2023/07/15 08:09:51;;;;;;;;;;;;;;;;;;5064451;28;20036;-61
2023/07/15 08:12:16;;;;;;;4.38;2.03;;;;;;;;;;5068068;28;20006;-61
2023/07/15 08:14:42;;;;;;;;;;;;;;;;;;5050794;28;20017;-59
2023/07/15 08:17:07;;;;;;;6.90;2.75;;;;;;;;;;5050654;28;19931;-61
2023/07/15 08:19:32;;;;;;;;;;;;;;;;;;5051266;28;20013;-61
2023/07/15 08:21:57;;;;;;;4.78;2.10;;;;;;;;;;5050961;28;19958;-61
2023/07/15 08:24:22;;;;;;;;;;;;;;;;;;5050630;28;20441;-61
2023/07/15 08:26:47;;;;;;;6.22;2.22;;;;;;;;;;5050500;28;19931;-61
2023/07/15 08:29:12;;;;;;;;;;;;;;;;;;5050797;28;20430;-61
2023/07/15 08:31:38;;;;;;;8.15;2.15;;;;;;;;;;5050788;28;19951;-61
2023/07/15 08:34:03;;;;;;;;;;;;;;;;;;5050481;28;20024;-61
2023/07/15 08:36:29;;;;;;;5.80;2.20;;;;;;;;;;5050865;28;19957;-61
2023/07/15 08:38:54;;;;;;;5.47;2.13;;;;;;;;;;5050648;28;20032;-60
2023/07/15 08:41:19;;;;;;;;;;;;;;;;;;5051175;28;20017;-61
2023/07/15 08:43:45;;;;;;;5.53;2.00;;;;;;;;;;5049493;28;19935;-61
2023/07/15 08:46:20;;;;;;;7.28;2.08;;;;;;;;;;5053114;28;20063;-59
2023/07/15 08:48:45;;;;;;;7.10;2.45;;;;;;;;;;5070399;28;20491;-61
2023/07/15 08:51:11;;;;;;;5.97;2.17;;;;;;;;;;5070740;28;20060;-60
2023/07/15 08:53:37;;;;;;;4.65;2.00;;;;;;;;;;5070947;28;20161;-61
2023/07/15 08:56:03;;;;;;;6.70;1.80;;;;;;;;;;5070928;28;20074;-59
2023/07/15 08:58:28;;;;;;;6.40;2.13;;;;;;;;;;5071028;28;20025;-60
2023/07/15 09:00:53;;;;;;;8.70;2.33;;;;;;;;;;5071048;28;20016;-62
2023/07/15 09:03:21;;;;;;;;;;;;;;;;;;5070657;28;20509;-62
2023/07/15 09:05:48;;;;;;;4.80;2.00;;;;;;;;;;5070260;28;19911;-61
2023/07/15 09:08:14;;;;;;;12.20;1.92;;;;;;;;;;5068851;28;20384;-61
2023/07/15 09:10:55;;;;;;;6.97;2.10;;;;;;;;;;5057809;28;20017;-60
2023/07/15 09:13:24;;;;;;;5.72;2.00;;;;;;;;;;5049685;28;20025;-61
2023/07/15 09:15:50;;;;;;;4.32;1.73;;;;;;;;;;5050219;28;20092;-61
2023/07/15 09:18:15;;;;;;;8.25;1.92;;;;;;;;;;5050485;28;20112;-62
2023/07/15 09:20:40;;;;;;;4.70;1.87;;;;;;;;;;5050185;28;20435;-61
2023/07/15 09:23:05;;;;;;;6.47;1.90;;;;;;;;;;5049621;28;20369;-62
2023/07/15 09:25:30;;;;;;;5.70;2.13;;;;;;;;;;5055331;28;20024;-61
2023/07/15 09:27:56;;;;;;;4.27;1.50;;;;;;;;;;5069961;28;20016;-62
2023/07/15 09:30:21;;;;;;;3.97;2.00;;;;;;;;;;5070174;28;20052;-61
2023/07/15 09:32:47;;;;;;;5.05;1.77;;;;;;;;;;5069469;28;20017;-61
2023/07/15 09:35:14;;;;;;;4.90;1.63;;;;;;;;;;5070086;28;20021;-61
2023/07/15 09:37:39;;;;;;;5.50;1.85;;;;;;;;;;5069879;28;20031;-59
2023/07/15 09:40:07;;;;;;;5.35;1.90;;;;;;;;;;5070474;28;20024;-62
2023/07/15 09:42:48;;;;;;;5.80;1.90;;;;;;;;;;5073087;28;20037;-63
2023/07/15 09:45:29;;;;;;;4.55;1.88;;;;;;;;;;5073617;28;20104;-60
2023/07/15 09:47:55;;;;;;;4.22;2.00;;;;;;;;;;5073706;28;20020;-61
2023/07/15 09:50:20;;;;;;;6.00;1.70;;;;;;;;;;5073510;28;20476;-61
2023/07/15 09:52:45;;;;;;;5.43;1.77;;;;;;;;;;5070652;28;20028;-62
2023/07/15 09:55:11;;;;;;;5.30;1.90;;;;;;;;;;5073797;28;21103;-61
2023/07/15 09:57:36;;;;;;;5.03;2.00;;;;;;;;;;5073733;28;20073;-62
2023/07/15 10:00:01;;;;;;;6.68;1.90;;;;;;;;;;5073594;28;20495;-60
2023/07/15 10:02:33;;;;;;;6.07;1.77;;;;;;;;;;5073212;28;20051;-62
2023/07/15 10:05:01;;;;;;;4.65;1.63;;;;;;;;;;5073320;28;20095;-61
2023/07/15 10:07:28;;;;;;;5.32;2.05;;;;;;;;;;5058200;28;20392;-59
2023/07/15 10:09:53;;;;;;;3.90;1.90;;;;;;;;;;5053379;28;20108;-60
2023/07/15 10:12:18;;;;;;;5.80;2.20;;;;;;;;;;5053317;28;20087;-61
2023/07/15 10:14:43;;;;;;;4.57;1.90;;;;;;;;;;5053317;28;20032;-61
2023/07/15 10:17:12;;;;;;;4.57;1.97;;;;;;;;;;5068945;28;20116;-60
2023/07/15 10:19:48;;;;;;;4.45;1.83;;;;;;;;;;5073384;28;20818;-60
2023/07/15 10:22:15;;;;;;;4.50;1.70;;;;;;;;;;5073537;28;20104;-60
2023/07/15 10:24:43;;;;;;;4.07;1.77;;;;;;;;;;5069192;28;20482;-61
2023/07/15 10:27:10;;;;;;;5.68;1.88;;;;;;;;;;5072972;28;20029;-60
2023/07/15 10:29:36;;;;;;;4.03;1.75;;;;;;;;;;5072947;28;20020;-61
2023/07/15 10:32:28;;;;;;;4.97;1.95;;;;;;;;;;5070334;28;20434;-61
2023/07/15 10:34:54;;;;;;;4.93;1.80;;;;;;;;;;5070276;28;20127;-61
2023/07/15 10:37:19;;;;;;;5.97;1.90;;;;;;;;;;5072738;28;20421;-61
2023/07/15 10:39:45;;;;;;;5.10;1.90;;;;;;;;;;5072787;28;20052;-61
2023/07/15 10:42:11;;;;;;;5.10;1.95;;;;;;;;;;5072319;28;20013;-60
2023/07/15 10:44:51;;;;;;;4.07;1.88;;;;;;;;;;5071918;28;20043;-60
2023/07/15 10:47:16;;;;;;;3.90;1.70;;;;;;;;;;5070215;28;20032;-61
2023/07/15 10:49:42;;;;;;;6.18;2.00;;;;;;;;;;5071732;28;20027;-61
2023/07/15 10:52:07;;;;;;;4.97;2.13;;;;;;;;;;5071756;28;20017;-61
2023/07/15 10:54:35;;;;;;;4.13;1.80;;;;;;;;;;5071814;28;20029;-60
2023/07/15 10:57:21;;;;;;;4.35;1.90;;;;;;;;;;5073133;28;20028;-58
2023/07/15 10:59:46;;;;;;;4.68;2.10;;;;;;;;;;5072039;28;20100;-62
2023/07/15 11:02:12;;;;;;;3.83;1.90;;;;;;;;;;5070055;28;20523;-62
2023/07/15 11:04:38;;;;;;;3.90;1.83;;;;;;;;;;5069024;28;20129;-61
2023/07/15 11:07:05;;;;;;;3.60;1.80;;;;;;;;;;5069899;28;20039;-61
2023/07/15 11:09:30;;;;;;;4.85;1.83;;;;;;;;;;5072307;28;20096;-60
2023/07/15 11:11:55;;;;;;;4.68;1.80;;;;;;;;;;5071852;28;20551;-60
2023/07/15 11:14:21;;;;;;;4.33;1.60;;;;;;;;;;5069050;28;20040;-60
2023/07/15 11:16:49;;;;;;;4.18;1.60;;;;;;;;;;5071919;28;20020;-61
2023/07/15 11:19:15;;;;;;;4.18;1.60;;;;;;;;;;5071917;28;20066;-61
2023/07/15 11:21:40;;;;;;;4.63;1.92;;;;;;;;;;5069489;28;20048;-62
2023/07/15 11:24:05;;;;;;;3.90;1.90;;;;;;;;;;5071094;28;20031;-60
2023/07/15 11:26:30;;;;;;;5.10;1.70;;;;;;;;;;5071537;28;20453;-61
2023/07/15 11:28:55;;;;;;;3.45;1.63;;;;;;;;;;5071604;28;20052;-61
2023/07/15 11:31:25;;;;;;;5.40;2.00;;;;;;;;;;5071454;28;20335;-60
2023/07/15 11:33:51;;;;;;;5.55;2.03;;;;;;;;;;5071237;28;20027;-61
2023/07/15 11:36:16;;;;;;;4.72;1.73;;;;;;;;;;5069663;28;20021;-60
2023/07/15 11:38:42;;;;;;;3.97;1.73;;;;;;;;;;5069390;28;20021;-61
2023/07/15 11:41:07;;;;;;;3.67;1.80;;;;;;;;;;5068960;28;20119;-61
2023/07/15 11:43:32;;;;;;;4.15;2.00;;;;;;;;;;5054868;28;20082;-61
2023/07/15 11:45:58;;;;;;;5.87;1.90;;;;;;;;;;5051153;28;20063;-61
2023/07/15 11:48:24;;;;;;;3.97;1.83;;;;;;;;;;5050216;28;20535;-60
2023/07/15 11:50:49;;;;;;;5.30;1.92;;;;;;;;;;5071296;28;20098;-60
2023/07/15 11:53:31;;;;;;;3.40;1.70;;;;;;;;;;5070596;28;20520;-61
2023/07/15 11:55:56;;;;;;;6.82;2.20;;;;;;;;;;5067591;28;20032;-62
2023/07/15 11:58:37;;;;;;;4.15;2.10;;;;;;;;;;5071032;28;20030;-59
2023/07/15 12:01:03;;;;;;;5.63;2.13;;;;;;;;;;5071202;28;20033;-62
2023/07/15 12:03:28;;;;;;;4.97;1.80;;;;;;;;;;5054783;28;20476;-62
2023/07/15 12:05:53;;;;;;;4.33;2.10;;;;;;;;;;5065491;28;20028;-60
2023/07/15 12:08:19;;;;;;;5.50;1.93;;;;;;;;;;5068551;28;20050;-61
2023/07/15 12:10:53;;;;;;;5.10;1.98;;;;;;;;;;5071165;28;20020;-60
2023/07/15 12:13:18;;;;;;;5.40;1.90;;;;;;;;;;5066197;28;20031;-59
2023/07/15 12:15:43;;;;;;;4.60;2.00;;;;;;;;;;5050609;28;20025;-62
2023/07/15 12:18:08;;;;;;;4.10;1.97;;;;;;;;;;5050795;28;20024;-60
2023/07/15 12:20:34;;;;;;;7.07;1.85;;;;;;;;;;5050869;28;20077;-61
2023/07/15 12:22:59;;;;;;;5.90;2.03;;;;;;;;;;5049981;28;20035;-60
2023/07/15 12:25:25;;;;;;;5.03;2.03;;;;;;;;;;5068406;28;20472;-60
2023/07/15 12:27:50;;;;;;;3.88;1.80;;;;;;;;;;5071204;28;20038;-61
2023/07/15 12:30:15;;;;;;;4.22;1.95;;;;;;;;;;5059575;28;20028;-60
2023/07/15 12:32:40;;;;;;;4.23;2.30;;;;;;;;;;5050722;28;20102;-60
2023/07/15 12:35:06;;;;;;;6.87;2.00;;;;;;;;;;5051540;28;20469;-60
2023/07/15 12:37:32;;;;;;;3.58;1.83;;;;;;;;;;5050966;28;20029;-61
2023/07/15 12:39:57;;;;;;;4.00;1.90;;;;;;;;;;5066437;28;20380;-60
2023/07/15 12:42:22;;;;;;;5.30;2.00;;;;;;;;;;5070340;28;20020;-61
2023/07/15 12:44:47;;;;;;;5.80;2.50;;;;;;;;;;5070191;28;20021;-60
2023/07/15 12:47:12;;;;;;;4.50;2.10;;;;;;;;;;5070758;28;20082;-59
2023/07/15 12:49:37;;;;;;;4.78;2.30;;;;;;;;;;5068400;28;20024;-60
2023/07/15 12:52:03;;;;;;;4.00;1.83;;;;;;;;;;5070306;28;20086;-61
2023/07/15 12:54:28;;;;;;;4.75;1.90;;;;;;;;;;5070014;28;20115;-62
2023/07/15 12:56:53;;;;;;;4.03;2.00;;;;;;;;;;5070851;28;20044;-61
2023/07/15 12:59:18;;;;;;;8.17;1.97;;;;;;;;;;5070810;28;20020;-61
2023/07/15 13:01:43;;;;;;;5.27;1.87;;;;;;;;;;5070289;28;20025;-61
2023/07/15 13:04:08;;;;;;;3.78;1.80;;;;;;;;;;5061434;28;20021;-59
2023/07/15 13:06:34;;;;;;;4.80;2.30;;;;;;;;;;5055124;28;20478;-61
2023/07/15 13:08:59;;;;;;;4.40;2.10;;;;;;;;;;5070315;28;20027;-60
2023/07/15 13:11:24;;;;;;;4.33;1.60;;;;;;;;;;5061974;28;20030;-62
2023/07/15 13:13:49;;;;;;;5.00;1.85;;;;;;;;;;5070720;28;20411;-60
2023/07/15 13:16:14;;;;;;;5.23;2.20;;;;;;;;;;5074226;28;20027;-62
2023/07/15 13:18:40;;;;;;;5.67;2.10;;;;;;;;;;5074134;28;20033;-61
2023/07/15 13:21:05;;;;;;;4.80;1.87;;;;;;;;;;5074089;28;20025;-61
2023/07/15 13:23:30;;;;;;;4.80;2.00;;;;;;;;;;5071144;28;20024;-60
2023/07/15 13:25:55;;;;;;;4.13;1.70;;;;;;;;;;5074254;28;20025;-59
2023/07/15 13:28:21;;;;;;;4.27;1.73;;;;;;;;;;5074158;28;20166;-62
2023/07/15 13:30:46;;;;;;;4.35;2.03;;;;;;;;;;5074012;28;20017;-62
2023/07/15 13:33:11;;;;;;;5.03;1.90;;;;;;;;;;5073371;28;20020;-61
2023/07/15 13:35:36;;;;;;;3.73;1.70;;;;;;;;;;5072428;28;20565;-61
2023/07/15 13:38:01;;;;;;;3.90;1.73;;;;;;;;;;5091213;28;20024;-60
2023/07/15 13:40:27;;;;;;;4.10;1.67;;;;;;;;;;5060433;28;20039;-61
2023/07/15 13:42:52;;;;;;;3.57;1.57;;;;;;;;;;5073021;28;20103;-61
2023/07/15 13:45:17;;;;;;;6.83;1.80;;;;;;;;;;5073565;28;20377;-61
2023/07/15 13:47:42;;;;;;;3.47;1.80;;;;;;;;;;5073415;28;20021;-61
2023/07/15 13:50:08;;;;;;;4.80;2.03;;;;;;;;;;5073594;28;20021;-61
2023/07/15 13:52:33;;;;;;;4.20;1.80;;;;;;;;;;5067975;28;20036;-60
2023/07/15 13:54:58;;;;;;;3.93;1.90;;;;;;;;;;5053750;28;20048;-62
2023/07/15 13:57:23;;;;;;;4.00;1.80;;;;;;;;;;5053410;28;20033;-61
2023/07/15 13:59:48;;;;;;;5.15;1.75;;;;;;;;;;5056408;28;20484;-61
2023/07/15 14:02:15;;;;;;;3.63;1.77;;;;;;;;;;5073381;28;20052;-62
2023/07/15 14:04:40;;;;;;;4.80;1.90;;;;;;;;;;5072912;28;20036;-60
2023/07/15 14:07:05;;;;;;;4.80;2.17;;;;;;;;;;5072939;28;20012;-62
2023/07/15 14:09:30;;;;;;;3.90;1.90;;;;;;;;;;5070934;28;20024;-61
2023/07/15 14:11:56;;;;;;;4.28;2.30;;;;;;;;;;5062088;28;20033;-61
2023/07/15 14:14:21;;;;;;;4.53;2.00;;;;;;;;;;5052641;28;20040;-60
2023/07/15 14:16:46;;;;;;;4.13;2.10;;;;;;;;;;5053092;28;20013;-59
2023/07/15 14:19:11;;;;;;;4.97;2.10;;;;;;;;;;5053018;28;20040;-61
2023/07/15 14:21:37;;;;;;;5.73;2.17;;;;;;;;;;5052745;28;20382;-61
2023/07/15 14:24:03;;;;;;;3.93;1.80;;;;;;;;;;5060988;28;20033;-60
2023/07/15 14:26:29;;;;;;;6.20;1.85;;;;;;;;;;5073044;28;20028;-60
2023/07/15 14:28:55;;;;;;;6.40;2.47;;;;;;;;;;5073005;28;20017;-61
2023/07/15 14:31:20;;;;;;;4.90;1.92;;;;;;;;;;5071165;28;20135;-60
2023/07/15 14:33:46;;;;;;;4.13;2.00;;;;;;;;;;5069369;28;20543;-60
2023/07/15 14:36:12;;;;;;;4.72;2.22;;;;;;;;;;5071331;28;20021;-60
2023/07/15 14:38:37;;;;;;;4.87;2.00;;;;;;;;;;5070785;28;20089;-60
2023/07/15 14:41:03;;;;;;;4.67;2.10;;;;;;;;;;5072095;28;20099;-61
2023/07/15 14:43:28;;;;;;;4.72;1.92;;;;;;;;;;5073162;28;20043;-60